首页
METAR-TAF:

METAR-TAF

机场 :

里士满, 弗吉尼亚州, 美国

纬度: 37-24-24N, 经度: 077-31-30W, 海拔: 72米

当前天气观测

该预报发布于33分钟前的15:56 UTC
风速4节,风向
温度 27°C
湿度 79%
气压 1017 hPa
能見度: 16.1公里
天空无云

METAR: KFCI 161556Z AUTO 18004KT 10SM CLR 27/23 A3003 RMK AO2 SLP183 T02720228 $

时间: 12:29 (16:29 UTC)


TAF: 丢失

超过4000个机场的气象观测和天气预报(METAR&TAF报告)。

可查询的气象台以黄色和红色小点在地图上表示。

将鼠标移到小点上方,可查看气象台名称。

然后点击查看天气观测和预报。

如需切换地图:点击带黑十字的绿色按钮放大地图;点击带横线的绿色按钮缩小地图;或者点击绿色箭头查看邻近地区的地图。


METAR-TAF: